createdAt,value
2022-12-03T00:03:08.832Z,8.20
2022-12-03T00:08:10.280Z,8.40
2022-12-03T00:13:11.302Z,8.38
2022-12-03T00:18:12.719Z,8.90
2022-12-03T00:23:13.728Z,9.20
2022-12-03T00:28:15.038Z,7.82
2022-12-03T00:33:15.952Z,9.50
2022-12-03T00:38:17.315Z,9.68
2022-12-03T00:43:18.235Z,10.43
2022-12-03T00:48:19.698Z,10.25
2022-12-03T00:53:20.661Z,9.75
2022-12-03T00:58:21.969Z,10.82
2022-12-03T01:03:22.912Z,9.68
2022-12-03T01:08:24.205Z,11.55
2022-12-03T01:13:25.266Z,10.82
2022-12-03T01:18:26.518Z,11.50
2022-12-03T01:23:27.421Z,11.38
2022-12-03T01:28:28.834Z,12.07
2022-12-03T01:33:29.741Z,12.10
2022-12-03T01:38:30.945Z,11.80
2022-12-03T01:43:31.916Z,11.95
2022-12-03T01:48:37.152Z,12.43
2022-12-03T01:53:38.092Z,13.40
2022-12-03T01:58:41.319Z,13.15
2022-12-03T02:03:43.662Z,12.73
2022-12-03T02:08:45.990Z,12.40
2022-12-03T02:13:54.601Z,13.05
2022-12-03T02:18:57.417Z,15.30
2022-12-03T02:24:13.961Z,13.45
2022-12-03T02:29:15.285Z,14.00
2022-12-03T02:34:40.955Z,14.30
2022-12-03T02:39:47.623Z,12.25
2022-12-03T02:44:48.538Z,13.23
2022-12-03T02:49:50.962Z,12.93
2022-12-03T02:54:53.050Z,13.30
2022-12-03T02:59:55.762Z,13.30
2022-12-03T03:04:57.319Z,14.30
2022-12-03T03:10:00.244Z,14.95
2022-12-03T03:15:01.377Z,14.20
2022-12-03T03:20:04.778Z,14.43
2022-12-03T03:25:15.259Z,15.23
2022-12-03T03:30:16.822Z,13.90
2022-12-03T03:35:18.115Z,15.88
2022-12-03T03:40:21.120Z,15.40
2022-12-03T03:45:28.855Z,15.88
2022-12-03T03:50:32.025Z,15.70
2022-12-03T03:55:33.892Z,11.95
2022-12-03T04:00:36.407Z,16.48
2022-12-03T04:05:40.598Z,15.93
2022-12-03T04:11:00.371Z,16.85
2022-12-03T04:16:01.656Z,18.00
2022-12-03T04:21:21.476Z,17.87
2022-12-03T04:26:41.754Z,17.00
2022-12-03T04:32:01.809Z,17.27
2022-12-03T04:37:03.179Z,19.35
2022-12-03T04:42:06.047Z,17.58
2022-12-03T04:47:16.988Z,17.27
2022-12-03T04:52:19.825Z,17.90
2022-12-03T04:57:20.627Z,17.85
2022-12-03T05:02:21.884Z,18.33
2022-12-03T05:07:22.869Z,16.90
2022-12-03T05:12:24.155Z,17.98
2022-12-03T05:17:25.135Z,18.27
2022-12-03T05:22:26.788Z,17.95
2022-12-03T05:27:27.763Z,18.25
2022-12-03T05:32:29.091Z,17.75
2022-12-03T05:37:30.115Z,17.90
2022-12-03T05:42:49.985Z,18.02
2022-12-03T05:47:52.719Z,17.42
2022-12-03T05:52:54.084Z,17.35
2022-12-03T05:57:55.139Z,17.23
2022-12-03T06:02:57.149Z,19.52
2022-12-03T06:07:58.914Z,18.12
2022-12-03T06:13:01.612Z,16.50
2022-12-03T06:18:02.615Z,17.40
2022-12-03T06:23:04.027Z,16.95
2022-12-03T06:28:06.202Z,19.08
2022-12-03T06:33:07.617Z,17.73
2022-12-03T06:38:08.450Z,18.20
2022-12-03T06:43:09.550Z,16.55
2022-12-03T06:48:10.598Z,16.15
2022-12-03T06:53:11.901Z,16.27
2022-12-03T06:58:12.908Z,17.60
2022-12-03T07:03:13.944Z,17.52
2022-12-03T07:08:14.774Z,18.17
2022-12-03T07:13:15.629Z,17.60
2022-12-03T07:18:16.330Z,17.17
2022-12-03T07:23:17.244Z,18.52
2022-12-03T07:28:17.955Z,18.45
2022-12-03T07:33:18.735Z,18.27
2022-12-03T07:38:19.454Z,15.57
2022-12-03T07:43:20.427Z,17.55
2022-12-03T07:48:21.153Z,17.52
2022-12-03T07:53:22.121Z,17.62
2022-12-03T07:58:22.900Z,16.48
2022-12-03T08:03:24.058Z,17.35
2022-12-03T08:08:24.838Z,17.83
2022-12-03T08:13:26.950Z,17.42
2022-12-03T08:18:28.119Z,17.62
2022-12-03T08:23:28.985Z,17.08
2022-12-03T08:28:31.184Z,17.25
2022-12-03T08:33:34.669Z,18.30
2022-12-03T08:38:35.734Z,18.73
2022-12-03T08:43:41.503Z,18.17
2022-12-03T08:48:48.703Z,17.85
2022-12-03T08:54:01.579Z,17.90
2022-12-03T08:59:24.933Z,18.05
2022-12-03T09:04:44.424Z,17.00
2022-12-03T09:09:45.166Z,18.37
2022-12-03T09:14:46.283Z,20.50
2022-12-03T09:19:47.252Z,20.15
2022-12-03T09:24:48.114Z,18.15
2022-12-03T09:29:49.872Z,20.27
2022-12-03T09:34:50.913Z,18.20
2022-12-03T09:39:51.664Z,20.20
2022-12-03T09:44:53.968Z,20.25
2022-12-03T09:49:55.922Z,20.40
2022-12-03T09:54:58.798Z,20.33
2022-12-03T09:59:59.774Z,19.80
2022-12-03T10:05:01.207Z,22.15
2022-12-03T10:10:02.403Z,23.17
2022-12-03T10:15:04.292Z,22.35
2022-12-03T10:20:07.012Z,19.42
2022-12-03T10:25:14.792Z,20.65
2022-12-03T10:30:21.625Z,20.45
2022-12-03T10:35:35.231Z,19.30
2022-12-03T10:40:38.357Z,20.55
2022-12-03T10:50:51.414Z,19.65
2022-12-03T10:55:58.585Z,20.20
2022-12-03T11:01:02.764Z,21.17
2022-12-03T11:06:03.871Z,20.58
2022-12-03T11:11:16.922Z,21.37
2022-12-03T11:17:18.944Z,22.67
2022-12-03T11:22:37.601Z,21.17
2022-12-03T11:27:39.363Z,20.40
2022-12-03T11:32:59.660Z,21.05
2022-12-03T11:45:08.075Z,19.48
2022-12-03T11:50:40.291Z,21.00
2022-12-03T11:55:48.041Z,21.03
2022-12-03T12:00:57.701Z,20.75
2022-12-03T12:06:13.963Z,20.30
2022-12-03T12:11:24.794Z,21.10
2022-12-03T12:17:35.947Z,20.52
2022-12-03T12:22:36.785Z,22.20
2022-12-03T12:27:48.581Z,20.48
2022-12-03T12:32:52.692Z,18.15
2022-12-03T12:38:33.488Z,19.05
2022-12-03T12:43:35.254Z,19.15
2022-12-03T12:48:36.031Z,19.42
2022-12-03T12:53:38.817Z,19.58
2022-12-03T12:58:40.219Z,19.23
2022-12-03T13:03:41.277Z,19.40
2022-12-03T13:08:44.814Z,19.85
2022-12-03T13:13:45.569Z,19.48
2022-12-03T13:18:53.826Z,20.17
2022-12-03T13:23:56.585Z,19.42
2022-12-03T13:28:57.862Z,19.92
2022-12-03T13:34:00.993Z,18.95
2022-12-03T13:39:18.092Z,19.87
2022-12-03T13:44:19.247Z,19.70
2022-12-03T13:49:22.368Z,20.75
2022-12-03T13:59:27.748Z,20.15
2022-12-03T14:04:28.823Z,21.35
2022-12-03T14:09:29.608Z,21.12
2022-12-03T14:14:30.414Z,21.58
2022-12-03T14:19:31.782Z,22.67
2022-12-03T14:24:32.604Z,21.08
2022-12-03T14:29:33.361Z,20.75
2022-12-03T14:34:34.205Z,21.90
2022-12-03T14:39:36.323Z,21.65
2022-12-03T14:44:37.086Z,21.40
2022-12-03T14:49:38.042Z,22.80
2022-12-03T14:54:41.310Z,22.15
2022-12-03T14:59:43.416Z,23.75
2022-12-03T15:04:44.323Z,23.63
2022-12-03T15:09:45.311Z,23.15
2022-12-03T15:14:46.878Z,25.02
2022-12-03T15:19:47.626Z,23.95
2022-12-03T15:24:48.458Z,24.05
2022-12-03T15:29:49.240Z,25.58
2022-12-03T15:34:50.581Z,23.70
2022-12-03T15:39:51.315Z,26.23
2022-12-03T15:44:52.064Z,25.25
2022-12-03T15:49:53.250Z,27.25
2022-12-03T15:54:55.048Z,25.73
2022-12-03T15:59:57.409Z,25.52
2022-12-03T16:05:00.886Z,25.45
2022-12-03T16:15:03.183Z,25.58
2022-12-03T16:20:05.934Z,27.62
2022-12-03T16:25:07.691Z,25.35
2022-12-03T16:30:10.190Z,27.62
2022-12-03T16:35:11.048Z,26.60
2022-12-03T16:40:11.902Z,25.30
2022-12-03T16:45:32.765Z,25.85
2022-12-03T16:50:36.737Z,26.08
2022-12-03T16:55:37.464Z,25.85
2022-12-03T17:00:38.272Z,26.90
2022-12-03T17:05:39.090Z,26.48
2022-12-03T17:10:39.971Z,27.20
2022-12-03T17:15:40.943Z,27.05
2022-12-03T17:20:42.046Z,26.65
2022-12-03T17:25:42.781Z,26.12
2022-12-03T17:30:43.674Z,26.65
2022-12-03T17:35:45.729Z,26.08
2022-12-03T17:40:46.474Z,23.52
2022-12-03T17:45:47.436Z,26.60
2022-12-03T17:50:48.170Z,25.00
2022-12-03T17:55:48.980Z,25.85
2022-12-03T18:00:50.158Z,25.73
2022-12-03T18:05:51.044Z,24.60
2022-12-03T18:10:51.823Z,26.45
2022-12-03T18:15:52.910Z,26.30
2022-12-03T18:20:53.947Z,28.58
2022-12-03T18:25:55.699Z,26.60
2022-12-03T18:30:57.679Z,26.80
2022-12-03T18:35:58.724Z,27.13
2022-12-03T18:40:59.570Z,26.85
2022-12-03T18:46:00.373Z,26.33
2022-12-03T18:51:01.144Z,27.33
2022-12-03T18:56:01.884Z,27.10
2022-12-03T19:01:04.027Z,25.25
2022-12-03T19:06:05.323Z,26.30
2022-12-03T19:11:06.436Z,27.27
2022-12-03T19:16:10.073Z,26.52
2022-12-03T19:21:15.891Z,27.27
2022-12-03T19:26:16.637Z,25.12
2022-12-03T19:31:18.275Z,27.58
2022-12-03T19:36:22.349Z,26.27
2022-12-03T19:41:26.512Z,28.62
2022-12-03T19:46:29.478Z,26.20
2022-12-03T19:51:35.170Z,26.42
2022-12-03T19:56:36.625Z,25.25
2022-12-03T20:01:39.611Z,24.73
2022-12-03T20:11:41.940Z,24.77
2022-12-03T20:16:44.137Z,24.85
2022-12-03T20:21:45.164Z,25.20
2022-12-03T20:26:45.974Z,23.48
2022-12-03T20:31:46.786Z,22.77
2022-12-03T20:36:47.886Z,23.05
2022-12-03T20:41:48.614Z,23.25
2022-12-03T20:46:49.476Z,22.27
2022-12-03T20:51:50.192Z,22.98
2022-12-03T20:56:50.954Z,21.55
2022-12-03T21:01:51.827Z,22.15
2022-12-03T21:06:52.990Z,19.95
2022-12-03T21:11:54.177Z,19.20
2022-12-03T21:17:11.113Z,20.15
2022-12-03T21:22:12.269Z,19.73
2022-12-03T21:27:17.009Z,19.12
2022-12-03T21:32:22.206Z,18.20
2022-12-03T21:37:23.018Z,19.45
2022-12-03T21:42:35.417Z,18.12
2022-12-03T21:47:38.144Z,17.40
2022-12-03T21:52:39.152Z,17.50
2022-12-03T21:57:39.935Z,16.27
2022-12-03T22:02:40.779Z,16.52
2022-12-03T22:07:41.903Z,17.37
2022-12-03T22:12:42.776Z,15.27
2022-12-03T22:17:43.560Z,16.17
2022-12-03T22:22:44.407Z,15.50
2022-12-03T22:27:45.158Z,15.57
2022-12-03T22:32:45.929Z,17.08
2022-12-03T22:37:46.789Z,14.63
2022-12-03T22:42:50.973Z,14.15
2022-12-03T22:47:52.309Z,15.35
2022-12-03T22:52:53.084Z,16.30
2022-12-03T22:57:54.035Z,15.20
2022-12-03T23:02:54.868Z,15.07
2022-12-03T23:07:55.866Z,15.73
2022-12-03T23:12:56.669Z,14.85
2022-12-03T23:17:57.926Z,14.85
2022-12-03T23:22:58.659Z,15.40
2022-12-03T23:27:59.405Z,15.45
2022-12-03T23:33:00.164Z,14.68
2022-12-03T23:38:01.551Z,14.77
2022-12-03T23:43:02.297Z,15.23
2022-12-03T23:48:03.308Z,16.75
2022-12-03T23:53:04.050Z,16.60
2022-12-03T23:58:04.821Z,14.20
